Time;durP1;ratioP1;P1;durP2;ratioP2;P2;SDS_P1;SDS_P2;PMS_P1;PMS_P2;Temp;Humidity;BMP_temperature;BMP_pressure;BME280_temperature;BME280_humidity;BME280_pressure;Samples;Min_cycle;Max_cycle;Signal;HPM_P1;HPM_P2
2023/06/10 00:00:44;;;;;;;0.20;0.20;;;;;;;;;;5105326;28;20406;-52
2023/06/10 00:03:10;;;;;;;0.20;0.20;;;;;;;;;;5081882;28;20051;-51
2023/06/10 00:05:38;;;;;;;0.20;0.20;;;;;;;;;;5096379;28;20413;-51
2023/06/10 00:08:07;;;;;;;0.20;0.20;;;;;;;;;;5077905;28;20047;-52
2023/06/10 00:10:35;;;;;;;0.20;0.20;;;;;;;;;;5084599;28;20082;-53
2023/06/10 00:13:00;;;;;;;0.15;0.15;;;;;;;;;;5113103;28;20082;-52
2023/06/10 00:15:26;;;;;;;0.20;0.20;;;;;;;;;;5113207;28;20051;-52
2023/06/10 00:17:52;;;;;;;0.20;0.20;;;;;;;;;;5105179;28;20047;-52
2023/06/10 00:20:18;;;;;;;0.17;0.17;;;;;;;;;;5112857;28;20483;-49
2023/06/10 00:22:45;;;;;;;0.20;0.20;;;;;;;;;;5113198;28;20100;-51
2023/06/10 00:25:11;;;;;;;0.28;0.28;;;;;;;;;;5112459;28;20437;-53
2023/06/10 00:27:37;;;;;;;0.20;0.20;;;;;;;;;;5111527;27;20040;-53
2023/06/10 00:30:04;;;;;;;0.20;0.20;;;;;;;;;;5099082;28;20047;-52
2023/06/10 00:32:30;;;;;;;0.20;0.20;;;;;;;;;;5076062;28;20510;-50
2023/06/10 00:34:56;;;;;;;0.20;0.20;;;;;;;;;;5094669;28;20807;-52
2023/06/10 00:37:22;;;;;;;0.20;0.20;;;;;;;;;;5095805;28;20574;-52
2023/06/10 00:39:47;;;;;;;0.20;0.20;;;;;;;;;;5115909;28;20496;-52
2023/06/10 00:42:13;;;;;;;0.20;0.20;;;;;;;;;;5116949;28;20074;-53
2023/06/10 00:44:39;;;;;;;0.20;0.20;;;;;;;;;;5098132;28;20071;-52
2023/06/10 00:47:05;;;;;;;0.20;0.20;;;;;;;;;;5116075;27;20075;-52
2023/06/10 00:49:30;;;;;;;0.20;0.20;;;;;;;;;;5113538;28;20039;-52
2023/06/10 00:51:56;;;;;;;0.20;0.20;;;;;;;;;;5108233;28;20080;-52
2023/06/10 00:54:22;;;;;;;0.20;0.20;;;;;;;;;;5098406;28;20130;-54
2023/06/10 00:56:48;;;;;;;0.20;0.20;;;;;;;;;;5099155;28;20562;-50
2023/06/10 00:59:14;;;;;;;0.20;0.20;;;;;;;;;;5097303;28;20039;-51
2023/06/10 01:01:43;;;;;;;0.20;0.20;;;;;;;;;;5114784;28;20047;-51
2023/06/10 01:04:11;;;;;;;0.20;0.20;;;;;;;;;;5077495;28;20524;-55
2023/06/10 01:06:49;;;;;;;0.20;0.20;;;;;;;;;;5077903;28;20051;-52
2023/06/10 01:09:21;;;;;;;0.15;0.15;;;;;;;;;;5110186;28;20513;-51
2023/06/10 01:11:50;;;;;;;0.20;0.20;;;;;;;;;;5116179;28;20071;-52
2023/06/10 01:14:16;;;;;;;0.20;0.20;;;;;;;;;;5110802;28;20047;-53
2023/06/10 01:16:45;;;;;;;0.25;0.25;;;;;;;;;;5088689;27;20481;-51
2023/06/10 01:19:12;;;;;;;0.20;0.20;;;;;;;;;;5122201;27;20043;-53
2023/06/10 01:21:38;;;;;;;0.20;0.20;;;;;;;;;;5097731;28;20073;-50
2023/06/10 01:24:07;;;;;;;0.20;0.20;;;;;;;;;;5115830;28;20050;-53
2023/06/10 01:26:34;;;;;;;0.20;0.20;;;;;;;;;;5116174;28;20551;-52
2023/06/10 01:29:02;;;;;;;0.20;0.20;;;;;;;;;;5115752;27;20051;-49
2023/06/10 01:31:38;;;;;;;0.10;0.10;;;;;;;;;;5100706;28;20047;-52
2023/06/10 01:34:08;;;;;;;0.20;0.20;;;;;;;;;;5115454;28;20047;-52
2023/06/10 01:36:34;;;;;;;0.20;0.20;;;;;;;;;;5115798;28;20043;-54
2023/06/10 01:39:02;;;;;;;0.20;0.20;;;;;;;;;;5096249;28;20054;-52
2023/06/10 01:41:28;;;;;;;0.20;0.20;;;;;;;;;;5116037;28;20151;-53
2023/06/10 01:43:54;;;;;;;0.20;0.20;;;;;;;;;;5115210;28;20039;-50
2023/06/10 01:46:21;;;;;;;0.20;0.20;;;;;;;;;;5115836;27;20100;-51
2023/06/10 01:48:46;;;;;;;0.20;0.20;;;;;;;;;;5120457;27;20166;-53
2023/06/10 01:51:12;;;;;;;0.20;0.20;;;;;;;;;;5113346;28;20407;-52
2023/06/10 01:53:37;;;;;;;0.15;0.15;;;;;;;;;;5114786;28;20039;-52
2023/06/10 01:56:03;;;;;;;0.20;0.20;;;;;;;;;;5115208;28;20483;-51
2023/06/10 01:58:29;;;;;;;0.20;0.20;;;;;;;;;;5115128;28;20043;-53
2023/06/10 02:00:54;;;;;;;0.20;0.20;;;;;;;;;;5097117;28;20201;-53
2023/06/10 02:03:20;;;;;;;0.20;0.20;;;;;;;;;;5114471;28;20050;-53
2023/06/10 02:05:45;;;;;;;0.20;0.20;;;;;;;;;;5115481;28;20440;-53
2023/06/10 02:08:11;;;;;;;0.20;0.20;;;;;;;;;;5114534;28;20043;-52
2023/06/10 02:10:36;;;;;;;0.15;0.15;;;;;;;;;;5115145;28;20046;-53
2023/06/10 02:13:02;;;;;;;0.20;0.20;;;;;;;;;;5115004;28;20051;-52
2023/06/10 02:15:27;;;;;;;0.20;0.20;;;;;;;;;;5114844;28;20039;-52
2023/06/10 02:17:54;;;;;;;0.20;0.20;;;;;;;;;;5112541;27;20054;-51
2023/06/10 02:20:20;;;;;;;0.10;0.10;;;;;;;;;;5105692;28;20062;-54
2023/06/10 02:22:46;;;;;;;0.20;0.20;;;;;;;;;;5094512;28;20104;-52
2023/06/10 02:25:11;;;;;;;0.25;0.25;;;;;;;;;;5094316;28;20261;-53
2023/06/10 02:27:37;;;;;;;0.30;0.30;;;;;;;;;;5094523;28;20620;-52
2023/06/10 02:30:03;;;;;;;0.20;0.20;;;;;;;;;;5116228;27;20448;-52
2023/06/10 02:32:29;;;;;;;0.10;0.10;;;;;;;;;;5116505;27;20531;-49
2023/06/10 02:34:55;;;;;;;0.20;0.20;;;;;;;;;;5114434;27;20047;-51
2023/06/10 02:37:20;;;;;;;0.10;0.10;;;;;;;;;;5114023;27;20289;-51
2023/06/10 02:39:46;;;;;;;0.20;0.20;;;;;;;;;;5114724;28;20236;-53
2023/06/10 02:42:11;;;;;;;0.20;0.20;;;;;;;;;;5114968;28;20350;-52
2023/06/10 02:44:37;;;;;;;0.25;0.25;;;;;;;;;;5119669;27;20564;-49
2023/06/10 02:47:03;;;;;;;0.20;0.20;;;;;;;;;;5135518;27;20272;-47
2023/06/10 02:49:28;;;;;;;0.20;0.20;;;;;;;;;;5126206;27;20191;-47
2023/06/10 02:51:54;;;;;;;0.20;0.20;;;;;;;;;;5114597;28;20047;-48
2023/06/10 02:54:20;;;;;;;0.20;0.20;;;;;;;;;;5114587;28;20070;-48
2023/06/10 02:56:47;;;;;;;0.20;0.20;;;;;;;;;;5095350;28;20051;-48
2023/06/10 02:59:13;;;;;;;0.10;0.10;;;;;;;;;;5114633;28;20267;-50
2023/06/10 03:01:39;;;;;;;0.20;0.20;;;;;;;;;;5114473;28;20266;-48
2023/06/10 03:04:05;;;;;;;0.20;0.20;;;;;;;;;;5114482;28;20150;-47
2023/06/10 03:06:33;;;;;;;0.10;0.10;;;;;;;;;;5114331;28;20127;-49
2023/06/10 03:08:59;;;;;;;;;;;;;;;;;;5113818;28;20081;-47
2023/06/10 03:11:25;;;;;;;0.20;0.20;;;;;;;;;;5114489;28;19920;-49
2023/06/10 03:13:52;;;;;;;0.20;0.20;;;;;;;;;;5113162;28;20653;-51
2023/06/10 03:16:18;;;;;;;0.20;0.20;;;;;;;;;;5116280;27;20100;-50
2023/06/10 03:18:44;;;;;;;0.20;0.20;;;;;;;;;;5127260;27;20452;-48
2023/06/10 03:21:09;;;;;;;0.10;0.10;;;;;;;;;;5114317;28;20286;-49
2023/06/10 03:23:35;;;;;;;0.20;0.20;;;;;;;;;;5113841;28;20043;-50
2023/06/10 03:26:00;;;;;;;0.20;0.20;;;;;;;;;;5114027;28;20138;-49
2023/06/10 03:28:26;;;;;;;0.20;0.20;;;;;;;;;;5113817;28;20219;-50
2023/06/10 03:30:51;;;;;;;0.20;0.20;;;;;;;;;;5114559;28;20562;-49
2023/06/10 03:33:17;;;;;;;0.10;0.10;;;;;;;;;;5114374;27;20237;-49
2023/06/10 03:35:42;;;;;;;0.20;0.20;;;;;;;;;;5113886;28;20403;-48
2023/06/10 03:38:08;;;;;;;0.20;0.20;;;;;;;;;;5102911;28;20040;-48
2023/06/10 03:40:33;;;;;;;0.20;0.20;;;;;;;;;;5113896;28;20043;-47
2023/06/10 03:43:00;;;;;;;0.20;0.20;;;;;;;;;;5113637;28;20048;-48
2023/06/10 03:45:28;;;;;;;0.20;0.20;;;;;;;;;;5113526;28;20086;-47
2023/06/10 03:47:53;;;;;;;0.20;0.20;;;;;;;;;;5113947;28;20077;-48
2023/06/10 03:50:19;;;;;;;0.20;0.20;;;;;;;;;;5115200;27;20290;-48
2023/06/10 03:52:45;;;;;;;0.20;0.20;;;;;;;;;;5133338;27;20043;-51
2023/06/10 03:55:13;;;;;;;0.20;0.20;;;;;;;;;;5133842;27;20039;-48
2023/06/10 03:57:39;;;;;;;0.10;0.10;;;;;;;;;;5133863;27;20066;-49
2023/06/10 04:00:10;;;;;;;0.20;0.20;;;;;;;;;;5116839;27;20047;-51
2023/06/10 04:02:36;;;;;;;0.20;0.20;;;;;;;;;;5113552;28;20050;-47
2023/06/10 04:05:02;;;;;;;0.20;0.20;;;;;;;;;;5112746;28;20699;-51
2023/06/10 04:07:28;;;;;;;0.10;0.10;;;;;;;;;;5094637;28;20043;-48
2023/06/10 04:09:56;;;;;;;;;;;;;;;;;;5115769;27;20047;-49
2023/06/10 04:12:21;;;;;;;0.20;0.20;;;;;;;;;;5117454;28;19946;-48
2023/06/10 04:14:47;;;;;;;0.20;0.20;;;;;;;;;;5097990;28;20485;-51
2023/06/10 04:17:12;;;;;;;0.20;0.20;;;;;;;;;;5106219;27;20468;-51
2023/06/10 04:19:38;;;;;;;0.20;0.20;;;;;;;;;;5108095;28;20484;-49
2023/06/10 04:22:05;;;;;;;0.20;0.20;;;;;;;;;;5117466;28;20480;-49
2023/06/10 04:24:30;;;;;;;0.10;0.10;;;;;;;;;;5116666;28;20074;-48
2023/06/10 04:26:56;;;;;;;0.20;0.20;;;;;;;;;;5116918;28;20074;-52
2023/06/10 04:29:21;;;;;;;0.20;0.20;;;;;;;;;;5116866;28;20051;-49
2023/06/10 04:31:47;;;;;;;0.20;0.20;;;;;;;;;;5116850;28;20198;-50
2023/06/10 04:34:13;;;;;;;0.20;0.20;;;;;;;;;;5127850;27;20552;-47
2023/06/10 04:36:38;;;;;;;0.10;0.10;;;;;;;;;;5137267;27;20126;-51
2023/06/10 04:39:05;;;;;;;0.10;0.10;;;;;;;;;;5098697;28;20043;-52
2023/06/10 04:41:31;;;;;;;0.20;0.20;;;;;;;;;;5098138;28;20043;-47
2023/06/10 04:43:57;;;;;;;0.20;0.20;;;;;;;;;;5116176;28;20244;-48
2023/06/10 04:46:23;;;;;;;0.10;0.10;;;;;;;;;;5115621;28;20047;-52
2023/06/10 04:48:48;;;;;;;0.20;0.20;;;;;;;;;;5116262;28;20411;-50
2023/06/10 04:51:14;;;;;;;0.10;0.10;;;;;;;;;;5116624;28;20462;-52
2023/06/10 04:53:40;;;;;;;0.10;0.10;;;;;;;;;;5122302;27;20262;-50
2023/06/10 04:56:07;;;;;;;0.20;0.20;;;;;;;;;;5116451;27;20269;-48
2023/06/10 04:58:33;;;;;;;0.20;0.20;;;;;;;;;;5115914;27;20520;-49
2023/06/10 05:00:59;;;;;;;0.20;0.20;;;;;;;;;;5116205;28;20047;-50
2023/06/10 05:03:25;;;;;;;0.20;0.20;;;;;;;;;;5116017;28;20054;-48
2023/06/10 05:05:50;;;;;;;0.10;0.10;;;;;;;;;;5116385;28;20047;-50
2023/06/10 05:08:16;;;;;;;0.17;0.17;;;;;;;;;;5115599;28;20054;-49
2023/06/10 05:10:42;;;;;;;0.20;0.20;;;;;;;;;;5115971;28;20101;-52
2023/06/10 05:13:07;;;;;;;0.20;0.20;;;;;;;;;;5115600;28;20039;-50
2023/06/10 05:15:33;;;;;;;0.20;0.20;;;;;;;;;;5116077;28;20416;-50
2023/06/10 05:17:58;;;;;;;0.20;0.20;;;;;;;;;;5113296;27;20051;-51
2023/06/10 05:20:25;;;;;;;0.20;0.20;;;;;;;;;;5114973;27;20050;-50
2023/06/10 05:22:50;;;;;;;0.20;0.20;;;;;;;;;;5115497;28;20392;-50
2023/06/10 05:25:16;;;;;;;0.20;0.20;;;;;;;;;;5116046;28;20092;-49
2023/06/10 05:27:42;;;;;;;0.20;0.20;;;;;;;;;;5115427;28;20047;-50
2023/06/10 05:30:10;;;;;;;0.20;0.20;;;;;;;;;;5115267;28;20301;-50
2023/06/10 05:32:35;;;;;;;0.20;0.20;;;;;;;;;;5115433;28;20116;-50
2023/06/10 05:35:01;;;;;;;0.20;0.20;;;;;;;;;;5115947;27;20047;-50
2023/06/10 05:37:27;;;;;;;0.20;0.20;;;;;;;;;;5134881;27;20043;-52
2023/06/10 05:39:52;;;;;;;0.20;0.20;;;;;;;;;;5123084;27;20488;-48
2023/06/10 05:42:18;;;;;;;0.10;0.10;;;;;;;;;;5115406;28;20411;-48
2023/06/10 05:44:43;;;;;;;0.20;0.20;;;;;;;;;;5114982;28;20055;-50
2023/06/10 05:47:09;;;;;;;0.20;0.20;;;;;;;;;;5115640;28;20039;-50
2023/06/10 05:49:34;;;;;;;0.10;0.10;;;;;;;;;;5114599;28;20074;-50
2023/06/10 05:52:00;;;;;;;0.10;0.10;;;;;;;;;;5115504;28;20096;-50
2023/06/10 05:54:26;;;;;;;0.20;0.20;;;;;;;;;;5117298;27;20051;-50
2023/06/10 05:56:55;;;;;;;0.10;0.10;;;;;;;;;;5118311;27;20107;-47
2023/06/10 05:59:22;;;;;;;0.20;0.20;;;;;;;;;;5128709;27;20499;-51
2023/06/10 06:01:48;;;;;;;0.10;0.10;;;;;;;;;;5115071;28;20070;-48
2023/06/10 06:04:14;;;;;;;0.20;0.20;;;;;;;;;;5114303;28;20287;-48
2023/06/10 06:06:40;;;;;;;0.20;0.20;;;;;;;;;;5114018;28;20043;-48
2023/06/10 06:09:05;;;;;;;0.20;0.20;;;;;;;;;;5114610;28;20301;-49
2023/06/10 06:11:31;;;;;;;0.10;0.10;;;;;;;;;;5114746;28;20068;-49
2023/06/10 06:13:57;;;;;;;0.20;0.20;;;;;;;;;;5114782;28;20539;-50
2023/06/10 06:16:23;;;;;;;0.10;0.10;;;;;;;;;;5112975;27;20074;-49
2023/06/10 06:18:48;;;;;;;0.20;0.20;;;;;;;;;;5114668;28;20074;-48
2023/06/10 06:21:14;;;;;;;0.20;0.20;;;;;;;;;;5111898;28;20091;-52
2023/06/10 06:23:39;;;;;;;0.20;0.20;;;;;;;;;;5114621;28;20065;-50
2023/06/10 06:26:05;;;;;;;0.20;0.20;;;;;;;;;;5114744;28;20051;-49
2023/06/10 06:28:34;;;;;;;0.20;0.20;;;;;;;;;;5115386;28;20092;-50
2023/06/10 06:30:59;;;;;;;0.20;0.20;;;;;;;;;;5094488;28;20047;-50
2023/06/10 06:33:26;;;;;;;0.20;0.20;;;;;;;;;;5092918;28;20455;-50
2023/06/10 06:35:52;;;;;;;0.20;0.20;;;;;;;;;;5093034;28;20443;-52
2023/06/10 06:38:17;;;;;;;0.20;0.20;;;;;;;;;;5110939;27;20050;-48
2023/06/10 06:40:43;;;;;;;0.20;0.20;;;;;;;;;;5114130;28;20051;-49
2023/06/10 06:43:08;;;;;;;0.20;0.20;;;;;;;;;;5114157;28;20077;-47
2023/06/10 06:45:34;;;;;;;0.10;0.10;;;;;;;;;;5113978;28;20051;-50
2023/06/10 06:47:59;;;;;;;0.20;0.20;;;;;;;;;;5114820;28;20128;-48
2023/06/10 06:50:25;;;;;;;0.20;0.20;;;;;;;;;;5114603;28;20047;-51
2023/06/10 06:52:51;;;;;;;0.20;0.20;;;;;;;;;;5114203;28;20058;-48
2023/06/10 06:55:16;;;;;;;0.20;0.20;;;;;;;;;;5113803;28;20047;-50
2023/06/10 06:57:42;;;;;;;0.10;0.10;;;;;;;;;;5129412;27;20050;-49
2023/06/10 07:00:08;;;;;;;0.20;0.20;;;;;;;;;;5122798;27;20055;-48
2023/06/10 07:02:35;;;;;;;0.10;0.10;;;;;;;;;;5114570;28;20233;-50
2023/06/10 07:05:00;;;;;;;0.20;0.20;;;;;;;;;;5114354;28;20096;-49
2023/06/10 07:07:26;;;;;;;0.20;0.20;;;;;;;;;;5113994;28;20050;-51
2023/06/10 07:09:52;;;;;;;0.10;0.10;;;;;;;;;;5114027;28;20062;-49
2023/06/10 07:12:18;;;;;;;0.20;0.20;;;;;;;;;;5113908;27;20503;-47
2023/06/10 07:14:44;;;;;;;0.20;0.20;;;;;;;;;;5113712;28;20483;-52
2023/06/10 07:17:09;;;;;;;0.20;0.20;;;;;;;;;;5111780;27;20057;-50
2023/06/10 07:19:35;;;;;;;0.20;0.20;;;;;;;;;;5109396;28;20520;-48
2023/06/10 07:22:01;;;;;;;0.20;0.20;;;;;;;;;;5114354;28;20221;-49
2023/06/10 07:24:26;;;;;;;0.20;0.20;;;;;;;;;;5113883;28;20054;-50
2023/06/10 07:26:52;;;;;;;0.20;0.20;;;;;;;;;;5113870;28;20085;-48
2023/06/10 07:29:17;;;;;;;0.10;0.10;;;;;;;;;;5113754;28;20351;-49
2023/06/10 07:31:43;;;;;;;0.20;0.20;;;;;;;;;;5095608;28;20051;-49
2023/06/10 07:34:08;;;;;;;0.20;0.20;;;;;;;;;;5113861;28;20074;-49
2023/06/10 07:36:34;;;;;;;0.20;0.20;;;;;;;;;;5113510;28;20514;-51
2023/06/10 07:39:00;;;;;;;0.20;0.20;;;;;;;;;;5118674;27;20209;-49
2023/06/10 07:41:25;;;;;;;0.13;0.13;;;;;;;;;;5113858;27;20043;-47
2023/06/10 07:43:54;;;;;;;0.20;0.20;;;;;;;;;;5115673;27;20055;-48
2023/06/10 07:46:21;;;;;;;0.20;0.20;;;;;;;;;;5099067;28;20053;-49
2023/06/10 07:48:47;;;;;;;0.20;0.20;;;;;;;;;;5098742;28;20491;-50
2023/06/10 07:51:12;;;;;;;0.20;0.20;;;;;;;;;;5117580;28;20078;-48
2023/06/10 07:53:38;;;;;;;0.10;0.10;;;;;;;;;;5117115;28;20082;-48
2023/06/10 07:56:04;;;;;;;0.10;0.10;;;;;;;;;;5117106;28;20533;-49
2023/06/10 07:58:29;;;;;;;0.10;0.10;;;;;;;;;;5127703;27;20441;-49
2023/06/10 08:00:55;;;;;;;0.20;0.20;;;;;;;;;;5120276;27;20410;-49
2023/06/10 08:03:20;;;;;;;0.20;0.20;;;;;;;;;;5118088;28;20092;-49
2023/06/10 08:05:46;;;;;;;0.10;0.10;;;;;;;;;;5117627;28;20058;-51
2023/06/10 08:08:12;;;;;;;0.10;0.10;;;;;;;;;;5117091;28;20043;-49
2023/06/10 08:10:38;;;;;;;0.20;0.20;;;;;;;;;;5117207;28;20095;-49
2023/06/10 08:13:04;;;;;;;0.20;0.20;;;;;;;;;;5117915;28;20461;-52
2023/06/10 08:15:29;;;;;;;0.10;0.10;;;;;;;;;;5117576;28;20284;-50
2023/06/10 08:17:56;;;;;;;0.20;0.20;;;;;;;;;;5115346;27;20058;-48
2023/06/10 08:20:22;;;;;;;0.20;0.20;;;;;;;;;;5117120;27;20039;-52
2023/06/10 08:22:47;;;;;;;0.20;0.20;;;;;;;;;;5117603;28;20134;-48
2023/06/10 08:25:13;;;;;;;0.15;0.15;;;;;;;;;;5098774;28;20436;-49
2023/06/10 08:27:38;;;;;;;0.20;0.20;;;;;;;;;;5117618;28;20130;-50
2023/06/10 08:30:04;;;;;;;0.30;0.30;;;;;;;;;;5116615;28;20096;-47
2023/06/10 08:32:30;;;;;;;0.20;0.20;;;;;;;;;;5117714;28;20043;-47
2023/06/10 08:34:55;;;;;;;0.22;0.22;;;;;;;;;;5117035;28;20131;-51
2023/06/10 08:37:21;;;;;;;0.20;0.20;;;;;;;;;;5117175;28;20478;-48
2023/06/10 08:39:47;;;;;;;0.20;0.20;;;;;;;;;;5116737;28;20144;-49
2023/06/10 08:42:21;;;;;;;0.20;0.20;;;;;;;;;;5118807;27;20047;-50
2023/06/10 08:44:48;;;;;;;0.20;0.20;;;;;;;;;;5116963;27;20063;-49
2023/06/10 08:47:15;;;;;;;0.15;0.15;;;;;;;;;;5116188;27;20637;-51
2023/06/10 08:49:42;;;;;;;0.20;0.20;;;;;;;;;;5116679;27;20155;-50
2023/06/10 08:52:10;;;;;;;0.20;0.20;;;;;;;;;;5116766;28;20073;-49
2023/06/10 08:54:37;;;;;;;;;;;;;;;;;;5116267;27;20085;-51
2023/06/10 08:57:06;;;;;;;0.20;0.20;;;;;;;;;;5116535;28;20260;-49
2023/06/10 08:59:32;;;;;;;0.20;0.20;;;;;;;;;;5119122;27;20103;-48
2023/06/10 09:01:58;;;;;;;0.20;0.20;;;;;;;;;;5116689;27;20129;-49
2023/06/10 09:04:24;;;;;;;0.20;0.20;;;;;;;;;;5117415;27;20047;-48
2023/06/10 09:06:49;;;;;;;0.20;0.20;;;;;;;;;;5114693;28;20476;-49
2023/06/10 09:09:15;;;;;;;0.20;0.20;;;;;;;;;;5116394;28;20220;-51
2023/06/10 09:11:42;;;;;;;0.20;0.20;;;;;;;;;;5116626;28;20439;-50
2023/06/10 09:14:07;;;;;;;0.20;0.20;;;;;;;;;;5098679;28;20447;-51
2023/06/10 09:16:33;;;;;;;0.10;0.10;;;;;;;;;;5114665;27;20826;-51
2023/06/10 09:18:59;;;;;;;0.20;0.20;;;;;;;;;;5116637;28;20127;-48
2023/06/10 09:21:25;;;;;;;0.20;0.20;;;;;;;;;;5116371;27;20081;-48
2023/06/10 09:23:51;;;;;;;0.15;0.15;;;;;;;;;;5116693;28;20054;-49
2023/06/10 09:26:17;;;;;;;0.20;0.20;;;;;;;;;;5116152;28;20043;-51
2023/06/10 09:28:43;;;;;;;0.17;0.17;;;;;;;;;;5116194;28;20472;-49
2023/06/10 09:31:09;;;;;;;0.20;0.20;;;;;;;;;;5116082;28;20074;-48
2023/06/10 09:33:39;;;;;;;0.20;0.20;;;;;;;;;;5116325;28;20608;-51
2023/06/10 09:36:05;;;;;;;0.20;0.20;;;;;;;;;;5112272;28;20255;-49
2023/06/10 09:38:31;;;;;;;0.20;0.20;;;;;;;;;;5096316;28;20403;-47
2023/06/10 09:40:57;;;;;;;0.20;0.20;;;;;;;;;;5115488;28;20074;-48
2023/06/10 09:43:23;;;;;;;0.20;0.20;;;;;;;;;;5110091;27;20410;-48
2023/06/10 09:45:52;;;;;;;0.20;0.20;;;;;;;;;;5136525;27;20183;-51
2023/06/10 09:48:18;;;;;;;0.20;0.20;;;;;;;;;;5137284;27;20189;-48
2023/06/10 09:50:44;;;;;;;0.20;0.20;;;;;;;;;;5116862;27;20309;-49
2023/06/10 09:53:10;;;;;;;0.20;0.20;;;;;;;;;;5097639;28;20091;-49
2023/06/10 09:55:37;;;;;;;0.20;0.20;;;;;;;;;;5116381;28;20604;-49
2023/06/10 09:58:03;;;;;;;0.20;0.20;;;;;;;;;;5116174;28;20110;-48
2023/06/10 10:00:31;;;;;;;0.17;0.17;;;;;;;;;;5115868;28;20542;-48
2023/06/10 10:02:57;;;;;;;;;;;;;;;;;;5115684;27;20050;-49
2023/06/10 10:05:22;;;;;;;0.20;0.20;;;;;;;;;;5115582;28;19997;-48
2023/06/10 10:07:49;;;;;;;0.20;0.20;;;;;;;;;;5114369;27;20443;-49
2023/06/10 10:10:15;;;;;;;0.20;0.20;;;;;;;;;;5115421;27;20464;-49
2023/06/10 10:12:41;;;;;;;0.20;0.20;;;;;;;;;;5096627;28;20047;-47
2023/06/10 10:15:08;;;;;;;0.17;0.17;;;;;;;;;;5115565;28;20062;-47
2023/06/10 10:17:34;;;;;;;0.20;0.20;;;;;;;;;;5126861;27;20462;-51
2023/06/10 10:20:03;;;;;;;0.10;0.10;;;;;;;;;;5130547;27;20047;-51
2023/06/10 10:22:31;;;;;;;0.20;0.20;;;;;;;;;;5097006;28;20506;-50
2023/06/10 10:24:59;;;;;;;0.20;0.20;;;;;;;;;;5114696;27;20047;-51
2023/06/10 10:27:28;;;;;;;0.10;0.10;;;;;;;;;;5097262;28;20054;-48
2023/06/10 10:29:54;;;;;;;0.20;0.20;;;;;;;;;;5114871;28;20058;-48
2023/06/10 10:32:25;;;;;;;0.20;0.20;;;;;;;;;;5115708;28;20391;-49
2023/06/10 10:34:55;;;;;;;0.20;0.20;;;;;;;;;;5115342;28;20123;-48
2023/06/10 10:37:21;;;;;;;0.10;0.10;;;;;;;;;;5115444;28;20050;-51
2023/06/10 10:39:47;;;;;;;0.10;0.10;;;;;;;;;;5114966;28;20059;-48
2023/06/10 10:42:13;;;;;;;0.20;0.20;;;;;;;;;;5115096;28;20043;-50
2023/06/10 10:44:39;;;;;;;0.20;0.20;;;;;;;;;;5114320;27;20054;-52
2023/06/10 10:47:07;;;;;;;0.10;0.10;;;;;;;;;;5115500;27;20047;-48
2023/06/10 10:49:33;;;;;;;0.20;0.20;;;;;;;;;;5110708;27;20685;-46
2023/06/10 10:52:00;;;;;;;0.20;0.20;;;;;;;;;;5114761;28;20085;-47
2023/06/10 10:54:46;;;;;;;0.20;0.20;;;;;;;;;;5096533;28;20438;-47
2023/06/10 10:57:13;;;;;;;0.20;0.20;;;;;;;;;;5106592;27;20054;-49
2023/06/10 10:59:56;;;;;;;0.20;0.20;;;;;;;;;;5115605;27;20184;-50
2023/06/10 11:02:43;;;;;;;0.20;0.20;;;;;;;;;;5093333;27;20074;-50
2023/06/10 11:05:09;;;;;;;0.20;0.20;;;;;;;;;;5119256;27;20609;-50
2023/06/10 11:07:36;;;;;;;0.15;0.15;;;;;;;;;;5117310;27;20129;-49
2023/06/10 11:10:03;;;;;;;0.20;0.20;;;;;;;;;;5111669;28;20055;-51
2023/06/10 11:12:40;;;;;;;0.20;0.20;;;;;;;;;;5115152;28;20079;-49
2023/06/10 11:15:06;;;;;;;0.10;0.10;;;;;;;;;;5114430;28;20075;-51
2023/06/10 11:17:31;;;;;;;0.20;0.20;;;;;;;;;;5127146;27;20051;-48
2023/06/10 11:19:58;;;;;;;0.10;0.10;;;;;;;;;;5130503;27;20111;-50
2023/06/10 11:22:23;;;;;;;0.20;0.20;;;;;;;;;;5114665;28;20035;-48
2023/06/10 11:24:49;;;;;;;0.10;0.10;;;;;;;;;;5114916;28;20146;-48
2023/06/10 11:27:18;;;;;;;0.20;0.20;;;;;;;;;;5114666;28;20586;-51
2023/06/10 11:30:05;;;;;;;0.10;0.10;;;;;;;;;;5094323;28;20062;-52
2023/06/10 11:32:31;;;;;;;0.20;0.20;;;;;;;;;;5058921;28;20040;-47
2023/06/10 11:34:57;;;;;;;0.20;0.20;;;;;;;;;;5055455;28;20556;-47
2023/06/10 11:37:23;;;;;;;0.20;0.20;;;;;;;;;;5073244;28;20380;-48
2023/06/10 11:39:53;;;;;;;0.20;0.20;;;;;;;;;;5076596;28;20094;-48
2023/06/10 11:42:19;;;;;;;0.10;0.10;;;;;;;;;;5075799;28;20040;-46
2023/06/10 11:44:52;;;;;;;0.20;0.20;;;;;;;;;;5075097;28;20087;-48
2023/06/10 11:47:18;;;;;;;0.20;0.20;;;;;;;;;;5096633;28;20487;-47
2023/06/10 11:49:44;;;;;;;0.20;0.20;;;;;;;;;;5089382;28;20562;-48
2023/06/10 11:52:13;;;;;;;0.20;0.20;;;;;;;;;;5093964;28;20055;-49
2023/06/10 11:54:38;;;;;;;0.10;0.10;;;;;;;;;;5075396;28;20044;-49
2023/06/10 11:57:05;;;;;;;0.20;0.20;;;;;;;;;;5080969;28;20492;-49
2023/06/10 11:59:30;;;;;;;0.10;0.10;;;;;;;;;;5113955;28;20444;-49
2023/06/10 12:01:56;;;;;;;0.47;0.30;;;;;;;;;;5093761;28;20071;-46
2023/06/10 12:04:22;;;;;;;0.20;0.20;;;;;;;;;;5093735;28;20047;-47
2023/06/10 12:06:48;;;;;;;0.20;0.20;;;;;;;;;;5091826;28;20055;-48
2023/06/10 12:09:29;;;;;;;0.20;0.20;;;;;;;;;;5096687;28;20047;-48
2023/06/10 12:11:59;;;;;;;0.20;0.20;;;;;;;;;;5092966;28;20040;-49
2023/06/10 12:14:44;;;;;;;0.20;0.20;;;;;;;;;;5092906;28;20056;-50
2023/06/10 12:17:10;;;;;;;0.20;0.20;;;;;;;;;;5090585;28;20625;-50
2023/06/10 12:19:39;;;;;;;0.20;0.20;;;;;;;;;;5087229;28;20842;-49
2023/06/10 12:22:06;;;;;;;0.17;0.17;;;;;;;;;;5093079;28;20048;-49
2023/06/10 12:24:32;;;;;;;0.20;0.20;;;;;;;;;;5093371;28;20100;-48
2023/06/10 12:26:58;;;;;;;0.20;0.20;;;;;;;;;;5081625;28;20040;-50
2023/06/10 12:29:24;;;;;;;0.32;0.30;;;;;;;;;;5093386;28;20039;-49
2023/06/10 12:31:54;;;;;;;0.20;0.20;;;;;;;;;;5096374;28;20063;-46
2023/06/10 12:34:20;;;;;;;0.20;0.20;;;;;;;;;;5096203;28;20134;-47
2023/06/10 12:36:49;;;;;;;0.20;0.20;;;;;;;;;;5096550;28;20048;-46
2023/06/10 12:39:14;;;;;;;0.20;0.20;;;;;;;;;;5075885;28;20051;-46
2023/06/10 12:41:40;;;;;;;0.20;0.20;;;;;;;;;;5095671;28;20052;-47
2023/06/10 12:44:06;;;;;;;0.10;0.10;;;;;;;;;;5096057;28;20043;-51
2023/06/10 12:46:39;;;;;;;0.20;0.20;;;;;;;;;;5096251;28;20074;-49
2023/06/10 12:49:05;;;;;;;0.20;0.20;;;;;;;;;;5112104;28;20073;-48
2023/06/10 12:51:30;;;;;;;0.20;0.20;;;;;;;;;;5096067;28;20039;-48
2023/06/10 12:53:56;;;;;;;0.15;0.15;;;;;;;;;;5096048;28;20070;-48
2023/06/10 12:56:21;;;;;;;0.15;0.15;;;;;;;;;;5096058;28;20093;-48
2023/06/10 12:58:47;;;;;;;0.20;0.20;;;;;;;;;;5076340;28;20173;-47
2023/06/10 13:01:13;;;;;;;0.20;0.20;;;;;;;;;;5090774;28;20443;-51
2023/06/10 13:03:40;;;;;;;0.20;0.20;;;;;;;;;;5096455;28;20334;-46
2023/06/10 13:06:06;;;;;;;0.20;0.20;;;;;;;;;;5095976;28;20078;-48
2023/06/10 13:08:32;;;;;;;0.20;0.20;;;;;;;;;;5095991;28;20087;-46
2023/06/10 13:10:58;;;;;;;0.20;0.20;;;;;;;;;;5095875;28;20044;-48
2023/06/10 13:13:24;;;;;;;0.20;0.20;;;;;;;;;;5096587;28;20056;-46
2023/06/10 13:15:49;;;;;;;0.20;0.20;;;;;;;;;;5095934;28;20050;-46
2023/06/10 13:18:17;;;;;;;0.20;0.20;;;;;;;;;;5058069;28;20052;-48
2023/06/10 13:20:43;;;;;;;0.15;0.15;;;;;;;;;;5086407;28;20066;-46
2023/06/10 13:23:08;;;;;;;0.20;0.20;;;;;;;;;;5096488;28;20543;-47
2023/06/10 13:25:34;;;;;;;0.20;0.20;;;;;;;;;;5095684;28;20105;-50
2023/06/10 13:27:59;;;;;;;0.10;0.10;;;;;;;;;;5095759;28;20854;-48
2023/06/10 13:30:26;;;;;;;0.20;0.20;;;;;;;;;;5102282;28;20323;-48
2023/06/10 13:32:51;;;;;;;0.20;0.20;;;;;;;;;;5096236;28;20090;-47
2023/06/10 13:35:17;;;;;;;0.10;0.10;;;;;;;;;;5096825;28;20044;-46
2023/06/10 13:37:43;;;;;;;0.20;0.20;;;;;;;;;;5095794;28;20468;-46
2023/06/10 13:40:09;;;;;;;0.20;0.20;;;;;;;;;;5095658;28;20043;-47
2023/06/10 13:42:36;;;;;;;0.10;0.10;;;;;;;;;;5095397;28;20055;-47
2023/06/10 13:45:02;;;;;;;0.20;0.20;;;;;;;;;;5095864;28;20059;-47
2023/06/10 13:47:27;;;;;;;0.20;0.20;;;;;;;;;;5095535;28;20060;-46
2023/06/10 13:49:53;;;;;;;0.10;0.10;;;;;;;;;;5096030;28;20058;-48
2023/06/10 13:52:19;;;;;;;0.10;0.10;;;;;;;;;;5096228;28;20564;-47
2023/06/10 13:54:44;;;;;;;0.10;0.10;;;;;;;;;;5096197;28;20099;-47
2023/06/10 13:57:10;;;;;;;0.40;0.40;;;;;;;;;;5095869;28;20138;-47
2023/06/10 13:59:36;;;;;;;0.20;0.20;;;;;;;;;;5095505;28;20048;-50
2023/06/10 14:02:01;;;;;;;0.10;0.10;;;;;;;;;;5094407;28;20052;-47
2023/06/10 14:04:27;;;;;;;0.20;0.20;;;;;;;;;;5095908;28;20186;-46
2023/06/10 14:06:52;;;;;;;0.10;0.10;;;;;;;;;;5095762;28;20132;-47
2023/06/10 14:09:19;;;;;;;0.10;0.10;;;;;;;;;;5094813;28;20055;-49
2023/06/10 14:11:44;;;;;;;0.20;0.20;;;;;;;;;;5095212;28;20488;-48
2023/06/10 14:14:10;;;;;;;0.20;0.20;;;;;;;;;;5095228;28;20838;-47
2023/06/10 14:16:35;;;;;;;0.20;0.20;;;;;;;;;;5102134;28;20050;-48
2023/06/10 14:19:01;;;;;;;0.10;0.10;;;;;;;;;;5116381;28;20504;-49
2023/06/10 14:21:27;;;;;;;0.20;0.20;;;;;;;;;;5098183;28;20137;-49
2023/06/10 14:23:53;;;;;;;0.20;0.20;;;;;;;;;;5094164;28;20035;-47
2023/06/10 14:26:21;;;;;;;0.20;0.20;;;;;;;;;;5095281;28;20142;-48
2023/06/10 14:28:47;;;;;;;0.20;0.20;;;;;;;;;;5077240;28;20051;-50
2023/06/10 14:31:12;;;;;;;0.20;0.20;;;;;;;;;;5104943;28;20039;-47
2023/06/10 14:33:39;;;;;;;0.20;0.20;;;;;;;;;;5114981;28;20043;-47
2023/06/10 14:36:05;;;;;;;0.20;0.20;;;;;;;;;;5116111;28;20478;-49
2023/06/10 14:38:30;;;;;;;0.10;0.10;;;;;;;;;;5097077;28;20097;-49